Time;durP1;ratioP1;P1;durP2;ratioP2;P2;SDS_P1;SDS_P2;PMS_P1;PMS_P2;Temp;Humidity;BMP_temperature;BMP_pressure;BME280_temperature;BME280_humidity;BME280_pressure;Samples;Min_cycle;Max_cycle;Signal;HPM_P1;HPM_P2
2021/04/21 00:01:39;;;;;;;7.45;4.57;;;7.60;99.90;;;;;;5042921;28;20208;-80
2021/04/21 00:04:07;;;;;;;8.40;4.65;;;7.60;99.90;;;;;;5060384;28;20196;-79
2021/04/21 00:06:36;;;;;;;5.80;4.40;;;7.50;99.90;;;;;;5061255;28;20204;-80
2021/04/21 00:09:06;;;;;;;6.35;4.10;;;7.50;99.90;;;;;;5061104;28;20577;-80
2021/04/21 00:11:35;;;;;;;8.90;4.35;;;7.50;99.90;;;;;;5061214;28;20203;-80
2021/04/21 00:14:02;;;;;;;9.98;4.93;;;7.40;99.90;;;;;;5044010;28;20197;-82
2021/04/21 00:16:32;;;;;;;5.38;3.70;;;7.40;99.90;;;;;;5043124;28;20189;-78
2021/04/21 00:19:02;;;;;;;8.02;4.28;;;7.30;99.90;;;;;;5040952;28;20276;-79
2021/04/21 00:21:31;;;;;;;4.65;3.75;;;7.30;99.90;;;;;;5059120;28;20267;-80
2021/04/21 00:24:00;;;;;;;4.60;3.78;;;7.30;99.90;;;;;;5085793;22;20234;-78
2021/04/21 00:26:29;;;;;;;4.07;3.50;;;7.30;99.90;;;;;;5074290;28;20644;-77
2021/04/21 00:28:57;;;;;;;12.20;4.63;;;7.30;99.90;;;;;;5073900;28;20184;-77
2021/04/21 00:31:25;;;;;;;6.68;3.33;;;7.30;99.90;;;;;;5074087;28;20199;-76
2021/04/21 00:33:56;;;;;;;4.85;3.75;;;7.30;99.90;;;;;;5074178;28;20214;-76
2021/04/21 00:36:26;;;;;;;5.38;4.10;;;7.20;99.90;;;;;;5073899;28;20174;-75
2021/04/21 00:38:55;;;;;;;3.58;3.10;;;7.20;99.90;;;;;;5073879;28;20220;-77
2021/04/21 00:41:35;;;;;;;7.53;4.40;;;7.10;99.90;;;;;;5074145;28;20389;-76
2021/04/21 00:44:14;;;;;;;11.18;4.63;;;7.10;99.90;;;;;;5074487;28;20219;-76
2021/04/21 00:46:48;;;;;;;5.35;3.33;;;7.10;99.90;;;;;;5055887;28;20271;-77
2021/04/21 00:49:21;;;;;;;4.53;3.17;;;7.20;99.90;;;;;;5073319;28;20222;-76
2021/04/21 00:51:52;;;;;;;7.25;5.15;;;7.10;99.90;;;;;;5054679;28;20188;-76
2021/04/21 00:54:32;;;;;;;6.38;3.35;;;7.00;99.90;;;;;;5055215;28;20233;-75
2021/04/21 00:57:11;;;;;;;4.50;3.35;;;6.90;99.90;;;;;;5055131;28;20199;-76
2021/04/21 00:59:54;;;;;;;9.05;3.63;;;6.90;99.90;;;;;;5072981;28;20191;-76
2021/04/21 01:02:26;;;;;;;5.38;3.78;;;6.90;99.90;;;;;;5074625;28;20485;-76
2021/04/21 01:04:56;;;;;;;6.20;3.63;;;6.80;99.90;;;;;;5056558;28;20196;-76
2021/04/21 01:07:25;;;;;;;6.05;3.42;;;6.70;99.90;;;;;;5075071;28;20202;-77
2021/04/21 01:09:57;;;;;;;9.77;4.22;;;6.70;99.90;;;;;;5056810;28;20192;-76
2021/04/21 01:12:28;;;;;;;3.83;3.08;;;6.60;99.90;;;;;;5073851;28;20227;-75
2021/04/21 01:14:57;;;;;;;6.30;3.65;;;6.60;99.90;;;;;;5055557;28;20206;-76
2021/04/21 01:17:27;;;;;;;3.83;3.30;;;6.60;99.90;;;;;;5073438;28;20215;-75
2021/04/21 01:20:18;;;;;;;5.15;4.60;;;6.50;99.90;;;;;;5055148;28;20208;-75
2021/04/21 01:23:08;;;;;;;7.75;4.00;;;6.40;99.90;;;;;;5069395;28;20231;-76
2021/04/21 01:25:48;;;;;;;5.32;4.18;;;6.40;99.90;;;;;;5041884;28;20200;-76
2021/04/21 01:28:22;;;;;;;8.60;4.57;;;6.40;99.90;;;;;;5054883;28;20192;-76
2021/04/21 01:30:50;;;;;;;8.20;3.45;;;6.50;99.90;;;;;;5073387;28;20180;-77
2021/04/21 01:33:21;;;;;;;6.97;3.90;;;6.50;99.90;;;;;;5073060;28;20210;-76
2021/04/21 01:35:54;;;;;;;8.32;4.57;;;6.50;99.90;;;;;;5054871;28;20184;-76
2021/04/21 01:38:24;;;;;;;4.72;4.15;;;6.50;99.90;;;;;;5072457;28;20188;-79
2021/04/21 01:40:53;;;;;;;5.68;4.07;;;6.60;99.90;;;;;;5072802;28;20571;-75
2021/04/21 01:43:24;;;;;;;6.38;4.35;;;6.50;99.90;;;;;;5072670;28;20211;-75
2021/04/21 01:45:56;;;;;;;5.78;4.03;;;6.40;99.90;;;;;;5072507;28;20176;-75
2021/04/21 01:48:25;;;;;;;6.57;3.67;;;6.30;99.90;;;;;;5072464;28;20198;-76
2021/04/21 01:50:53;;;;;;;8.77;6.68;;;6.20;99.90;;;;;;5072443;28;20176;-78
2021/04/21 01:53:33;;;;;;;8.50;5.68;;;6.20;99.90;;;;;;5072516;28;20295;-77
2021/04/21 01:56:06;;;;;;;4.47;3.10;;;6.20;99.90;;;;;;5072478;28;20184;-76
2021/04/21 01:59:01;;;;;;;8.15;4.85;;;6.20;99.90;;;;;;5072382;28;20188;-78
2021/04/21 02:01:51;;;;;;;5.85;4.20;;;6.10;99.90;;;;;;5072401;28;20172;-75
2021/04/21 02:04:28;;;;;;;7.90;3.85;;;6.10;99.90;;;;;;5073529;28;20260;-78
2021/04/21 02:07:01;;;;;;;4.53;3.75;;;6.00;99.90;;;;;;5072816;28;20176;-75
2021/04/21 02:09:55;;;;;;;4.28;3.40;;;6.00;99.90;;;;;;5072422;28;20176;-75
2021/04/21 02:12:46;;;;;;;5.18;4.20;;;6.00;99.90;;;;;;5055075;28;20216;-76
2021/04/21 02:15:20;;;;;;;5.10;2.97;;;5.90;99.90;;;;;;5072610;28;20220;-77
2021/04/21 02:17:53;;;;;;;6.03;3.58;;;5.90;99.90;;;;;;5072402;28;20194;-77
2021/04/21 02:20:28;;;;;;;5.15;3.85;;;5.80;99.90;;;;;;5072145;28;20287;-75
2021/04/21 02:23:01;;;;;;;5.80;3.45;;;5.70;99.90;;;;;;5053942;28;20331;-75
2021/04/21 02:25:39;;;;;;;3.97;3.22;;;5.80;99.90;;;;;;5073808;28;20634;-76
2021/04/21 02:28:13;;;;;;;4.10;3.25;;;5.70;99.90;;;;;;5072573;28;20172;-77
2021/04/21 02:30:45;;;;;;;4.70;3.55;;;5.70;99.90;;;;;;5072529;28;20177;-76
2021/04/21 02:33:19;;;;;;;6.88;3.95;;;5.70;99.90;;;;;;5054228;28;20216;-76
2021/04/21 02:35:48;;;;;;;10.68;4.55;;;5.70;99.90;;;;;;5073431;28;20173;-77
2021/04/21 02:38:29;;;;;;;3.90;3.40;;;5.60;99.90;;;;;;5073569;28;20180;-77
2021/04/21 02:41:07;;;;;;;6.78;4.05;;;5.60;99.90;;;;;;5077081;28;20176;-78
2021/04/21 02:44:07;;;;;;;4.45;2.92;;;5.60;99.90;;;;;;5076634;28;20212;-76
2021/04/21 02:46:40;;;;;;;5.43;3.35;;;5.50;99.90;;;;;;5087861;28;20271;-77
2021/04/21 02:49:20;;;;;;;5.25;3.95;;;5.50;99.90;;;;;;5090850;28;20166;-78
2021/04/21 02:51:54;;;;;;;5.07;3.17;;;5.50;99.90;;;;;;5095456;28;20202;-80
2021/04/21 02:54:30;;;;;;;6.65;3.38;;;5.40;99.90;;;;;;5079913;28;20183;-80
2021/04/21 02:57:05;;;;;;;8.65;5.18;;;5.40;99.90;;;;;;5097275;28;20184;-81
2021/04/21 02:59:39;;;;;;;7.05;2.67;;;5.40;99.90;;;;;;5097315;28;20192;-80
2021/04/21 03:02:10;;;;;;;4.43;3.40;;;5.40;99.90;;;;;;5072697;28;20259;-76
2021/04/21 03:04:46;;;;;;;4.60;3.75;;;5.40;99.90;;;;;;5073152;28;20222;-78
2021/04/21 03:07:18;;;;;;;4.80;2.88;;;5.40;99.90;;;;;;5072297;28;20610;-75
2021/04/21 03:09:50;;;;;;;7.15;4.30;;;5.30;99.90;;;;;;5072413;28;20183;-75
2021/04/21 03:12:23;;;;;;;6.43;3.28;;;5.40;99.90;;;;;;5071986;28;20236;-75
2021/04/21 03:14:54;;;;;;;9.68;4.38;;;5.40;99.90;;;;;;5074906;28;20172;-75
2021/04/21 03:17:22;;;;;;;9.40;4.80;;;5.40;99.90;;;;;;5075446;28;20176;-75
2021/04/21 03:19:54;;;;;;;6.35;4.10;;;5.40;99.90;;;;;;5075368;28;20241;-75
2021/04/21 03:22:27;;;;;;;6.30;3.95;;;5.40;99.90;;;;;;5057525;28;20326;-76
2021/04/21 03:25:00;;;;;;;5.90;4.78;;;5.40;99.90;;;;;;5075374;28;20180;-76
2021/04/21 03:27:32;;;;;;;5.40;3.72;;;5.40;99.90;;;;;;5075155;28;20187;-75
2021/04/21 03:30:03;;;;;;;4.82;3.60;;;5.40;99.90;;;;;;5075377;28;20160;-76
2021/04/21 03:32:36;;;;;;;8.32;5.00;;;5.40;99.90;;;;;;5074880;28;20233;-76
2021/04/21 03:35:05;;;;;;;5.97;3.88;;;5.40;99.90;;;;;;5075423;28;20172;-75
2021/04/21 03:37:41;;;;;;;6.28;4.30;;;5.30;99.90;;;;;;5075009;28;20192;-77
2021/04/21 03:40:10;;;;;;;9.30;3.78;;;5.30;99.90;;;;;;5075151;28;20207;-78
2021/04/21 03:42:38;;;;;;;5.25;3.95;;;5.30;99.90;;;;;;5075102;28;20216;-76
2021/04/21 03:45:07;;;;;;;19.05;4.85;;;5.40;99.90;;;;;;5056853;28;20646;-76
2021/04/21 03:47:36;;;;;;;12.82;3.75;;;5.40;99.90;;;;;;5074961;28;20588;-77
2021/04/21 03:50:06;;;;;;;8.95;4.82;;;5.40;99.90;;;;;;5074725;28;20179;-76
2021/04/21 03:52:35;;;;;;;11.23;4.80;;;5.40;99.90;;;;;;5075060;28;20717;-77
2021/04/21 03:55:02;;;;;;;11.10;5.43;;;5.40;99.90;;;;;;5074930;28;20187;-75
2021/04/21 03:57:32;;;;;;;7.00;4.38;;;5.40;99.90;;;;;;5074473;28;20188;-75
2021/04/21 04:00:03;;;;;;;7.03;5.65;;;5.40;99.90;;;;;;5074921;28;20711;-76
2021/04/21 04:02:34;;;;;;;6.18;4.45;;;5.40;99.90;;;;;;5074572;28;20211;-77
2021/04/21 04:05:05;;;;;;;3.90;3.10;;;5.50;99.90;;;;;;5056462;28;20275;-76
2021/04/21 04:07:40;;;;;;;6.85;3.95;;;5.50;99.90;;;;;;5074825;28;20207;-76
2021/04/21 04:10:09;;;;;;;5.63;4.90;;;5.60;99.90;;;;;;5074445;28;20186;-79
2021/04/21 04:12:39;;;;;;;5.50;4.25;;;5.60;99.90;;;;;;5074723;28;20511;-77
2021/04/21 04:15:09;;;;;;;7.80;4.15;;;5.70;99.90;;;;;;5074621;28;20183;-77
2021/04/21 04:17:38;;;;;;;7.40;4.55;;;5.70;99.90;;;;;;5074818;28;20176;-75
2021/04/21 04:20:08;;;;;;;5.60;4.60;;;5.80;99.90;;;;;;5074403;28;20561;-75
2021/04/21 04:22:38;;;;;;;5.90;4.25;;;6.10;99.90;;;;;;5060030;28;20231;-76
2021/04/21 04:25:07;;;;;;;7.57;4.53;;;6.40;99.90;;;;;;5056705;28;20190;-77
2021/04/21 04:27:39;;;;;;;5.30;4.13;;;6.80;99.90;;;;;;5074538;28;20184;-76
2021/04/21 04:30:08;;;;;;;6.15;4.75;;;7.30;99.90;;;;;;5056928;28;20180;-76
2021/04/21 04:32:39;;;;;;;6.03;3.75;;;7.90;99.90;;;;;;5057791;28;20208;-76
2021/04/21 04:35:09;;;;;;;5.30;4.80;;;8.50;99.90;;;;;;5076626;28;20186;-76
2021/04/21 04:37:39;;;;;;;10.43;5.03;;;8.80;99.90;;;;;;5063176;28;20184;-76
2021/04/21 04:40:09;;;;;;;4.85;3.55;;;9.30;99.90;;;;;;5078461;28;20643;-76
2021/04/21 04:42:37;;;;;;;5.05;3.55;;;10.00;99.90;;;;;;5077975;28;20635;-77
2021/04/21 04:45:08;;;;;;;6.75;2.88;;;10.40;99.90;;;;;;5080722;28;20176;-77
2021/04/21 04:47:43;;;;;;;3.67;3.00;;;10.90;99.90;;;;;;5097685;28;20172;-80
2021/04/21 04:50:13;;;;;;;6.95;4.20;;;11.30;99.90;;;;;;5098546;28;20192;-81
2021/04/21 04:52:41;;;;;;;12.10;3.75;;;11.80;99.90;;;;;;5098221;28;20219;-79
2021/04/21 04:55:11;;;;;;;5.40;3.00;;;12.50;99.90;;;;;;5097986;28;20186;-82
2021/04/21 04:57:40;;;;;;;10.82;4.00;;;13.30;99.90;;;;;;5097903;28;20152;-78
2021/04/21 05:00:09;;;;;;;8.48;3.63;;;13.60;99.90;;;;;;5097786;28;20231;-78
2021/04/21 05:02:42;;;;;;;6.35;3.75;;;13.70;99.90;;;;;;5098121;28;20208;-81
2021/04/21 05:05:11;;;;;;;7.10;4.27;;;13.60;99.90;;;;;;5094633;28;20263;-76
2021/04/21 05:07:46;;;;;;;7.73;4.70;;;13.90;99.90;;;;;;5066575;28;20882;-77
2021/04/21 05:10:18;;;;;;;4.97;3.10;;;14.10;99.90;;;;;;5079553;28;20505;-76
2021/04/21 05:12:48;;;;;;;6.10;4.00;;;14.20;99.90;;;;;;5079327;28;20976;-76
2021/04/21 05:16:06;;;;;;;4.67;4.10;;;13.90;99.90;;;;;;5082429;28;20861;-75
2021/04/21 05:19:04;;;;;;;5.93;3.53;;;12.50;99.90;;;;;;5039219;28;20469;-77
2021/04/21 05:22:15;;;;;;;10.82;4.75;;;10.50;99.90;;;;;;5066959;28;20208;-75
2021/04/21 05:25:23;;;;;;;5.88;5.03;;;9.50;99.90;;;;;;5073227;28;20576;-77
2021/04/21 05:28:28;;;;;;;9.93;5.32;;;8.80;99.90;;;;;;5055219;28;20196;-75
2021/04/21 05:31:16;;;;;;;6.80;4.50;;;8.30;99.90;;;;;;5072809;28;20176;-76
2021/04/21 05:34:20;;;;;;;6.80;4.10;;;8.20;99.90;;;;;;5072968;28;20215;-76
2021/04/21 05:37:45;;;;;;;5.95;3.80;;;8.10;99.90;;;;;;4990512;28;20294;-75
2021/04/21 05:40:58;;;;;;;7.47;4.47;;;8.10;99.90;;;;;;5073098;28;20634;-76
2021/04/21 05:44:23;;;;;;;6.35;4.13;;;8.20;99.90;;;;;;5038527;28;20350;-76
2021/04/21 05:47:27;;;;;;;6.57;4.22;;;8.30;99.90;;;;;;5034887;28;20246;-75
2021/04/21 05:50:43;;;;;;;5.45;4.32;;;8.40;99.90;;;;;;5051557;28;20696;-76
2021/04/21 05:53:37;;;;;;;6.57;3.25;;;8.50;99.90;;;;;;5072342;28;20219;-76
2021/04/21 05:56:54;;;;;;;9.95;4.35;;;8.50;99.90;;;;;;5072885;28;20635;-76
2021/04/21 06:00:07;;;;;;;6.20;4.50;;;8.60;99.90;;;;;;5072354;28;20287;-76
2021/04/21 06:02:36;;;;;;;4.78;3.80;;;8.80;99.90;;;;;;5057420;28;20579;-83
2021/04/21 06:05:07;;;;;;;8.10;3.67;;;8.90;99.90;;;;;;5065388;28;20189;-76
2021/04/21 06:07:34;;;;;;;8.25;5.88;;;9.10;99.90;;;;;;5081083;28;20558;-82
2021/04/21 06:10:23;;;;;;;6.00;5.13;;;9.20;99.90;;;;;;5082991;28;20578;-83
2021/04/21 06:12:54;;;;;;;7.70;3.72;;;9.30;99.90;;;;;;5072283;28;20212;-77
2021/04/21 06:15:26;;;;;;;6.35;5.07;;;9.40;99.90;;;;;;5073874;28;20180;-77
2021/04/21 06:17:55;;;;;;;5.68;4.60;;;9.40;99.90;;;;;;5072699;28;20291;-77
2021/04/21 06:20:30;;;;;;;6.22;5.03;;;9.40;99.90;;;;;;5072528;28;20200;-76
2021/04/21 06:23:09;;;;;;;6.13;4.30;;;9.50;99.90;;;;;;5097346;22;20224;-68
2021/04/21 06:25:40;;;;;;;6.60;5.60;;;9.70;99.90;;;;;;5027626;28;20197;-69
2021/04/21 06:28:13;;;;;;;9.27;3.85;;;9.90;99.90;;;;;;5030993;28;20633;-66
2021/04/21 06:30:41;;;;;;;9.07;5.00;;;10.00;99.90;;;;;;5013365;28;20198;-67
2021/04/21 06:33:09;;;;;;;7.00;3.85;;;10.10;99.90;;;;;;5013390;28;20197;-68
2021/04/21 06:35:38;;;;;;;7.97;5.45;;;10.10;99.90;;;;;;5031530;28;20678;-67
2021/04/21 06:38:06;;;;;;;8.18;5.03;;;10.10;99.90;;;;;;5031130;28;20216;-67
2021/04/21 06:40:36;;;;;;;6.40;4.57;;;10.20;99.90;;;;;;5031075;28;20212;-70
2021/04/21 06:43:04;;;;;;;7.95;4.35;;;10.40;99.90;;;;;;5030717;28;20212;-67
2021/04/21 06:45:33;;;;;;;6.00;4.47;;;10.50;99.90;;;;;;5030316;28;20197;-68
2021/04/21 06:48:01;;;;;;;5.55;3.47;;;10.70;99.90;;;;;;5012705;28;20241;-69
2021/04/21 06:50:30;;;;;;;6.50;4.60;;;10.80;99.90;;;;;;5034568;28;20634;-69
2021/04/21 06:53:03;;;;;;;9.23;5.95;;;10.80;99.90;;;;;;5034874;28;20181;-67
2021/04/21 06:55:32;;;;;;;6.43;5.60;;;10.90;99.90;;;;;;5034566;28;20251;-67
2021/04/21 06:58:00;;;;;;;5.82;4.05;;;10.90;99.90;;;;;;5034530;28;20697;-68
2021/04/21 07:00:29;;;;;;;5.30;3.97;;;11.00;99.90;;;;;;5034094;28;20233;-67
2021/04/21 07:02:58;;;;;;;5.85;4.30;;;11.00;99.90;;;;;;5017076;28;20834;-67
2021/04/21 07:05:31;;;;;;;8.27;3.72;;;11.00;99.90;;;;;;5016575;28;20194;-68
2021/04/21 07:08:07;;;;;;;6.47;5.78;;;11.00;99.90;;;;;;5016410;28;20224;-68
2021/04/21 07:10:36;;;;;;;6.47;3.83;;;11.00;99.90;;;;;;5033890;28;20281;-68
2021/04/21 07:13:04;;;;;;;5.95;4.57;;;11.00;99.90;;;;;;5030337;28;20280;-67
2021/04/21 07:15:34;;;;;;;6.28;4.78;;;11.10;99.90;;;;;;5034293;28;20194;-69
2021/04/21 07:18:02;;;;;;;6.00;4.20;;;11.20;99.90;;;;;;5036463;28;20213;-68
2021/04/21 07:20:30;;;;;;;8.98;4.88;;;11.30;99.90;;;;;;5033896;28;20193;-68
2021/04/21 07:22:58;;;;;;;11.25;4.20;;;11.40;99.90;;;;;;5033974;28;20208;-68
2021/04/21 07:25:26;;;;;;;4.57;4.07;;;11.60;99.90;;;;;;5033776;28;20548;-68
2021/04/21 07:27:55;;;;;;;6.00;4.93;;;11.70;99.90;;;;;;5034016;28;20423;-68
2021/04/21 07:30:27;;;;;;;6.63;3.67;;;11.80;99.90;;;;;;5016483;28;20414;-68
2021/04/21 07:32:56;;;;;;;5.67;3.93;;;12.00;99.90;;;;;;5034344;28;20424;-67
2021/04/21 07:35:25;;;;;;;9.80;5.80;;;12.10;99.90;;;;;;5034272;28;20975;-69
2021/04/21 07:37:55;;;;;;;5.70;4.70;;;12.30;99.90;;;;;;5033846;28;20986;-68
2021/04/21 07:40:30;;;;;;;6.57;3.90;;;12.50;99.90;;;;;;5033992;28;20567;-68
2021/04/21 07:43:10;;;;;;;3.97;3.57;;;12.50;99.90;;;;;;5016386;28;20482;-67
2021/04/21 07:45:52;;;;;;;5.47;3.77;;;12.60;99.90;;;;;;5033754;28;20416;-68
2021/04/21 07:48:50;;;;;;;4.00;3.23;;;12.70;99.90;;;;;;5033477;28;20469;-67
2021/04/21 07:51:39;;;;;;;4.37;3.97;;;12.70;99.90;;;;;;5033801;28;20416;-68
2021/04/21 07:54:22;;;;;;;6.03;3.33;;;12.90;99.90;;;;;;5033688;28;20435;-69
2021/04/21 07:57:01;;;;;;;6.40;4.23;;;13.10;99.90;;;;;;5033421;28;20464;-68
2021/04/21 07:59:30;;;;;;;6.60;3.63;;;13.30;99.90;;;;;;5032452;28;20773;-69
2021/04/21 08:02:03;;;;;;;7.90;3.47;;;13.60;99.90;;;;;;5033256;28;20978;-68
2021/04/21 08:04:32;;;;;;;8.33;4.20;;;13.60;99.90;;;;;;5032518;28;20409;-68
2021/04/21 08:07:01;;;;;;;6.17;4.40;;;13.50;99.90;;;;;;5014903;28;20436;-67
2021/04/21 08:09:34;;;;;;;6.23;4.40;;;13.60;99.90;;;;;;5032868;28;20391;-67
2021/04/21 08:12:10;;;;;;;4.37;3.53;;;13.70;99.90;;;;;;5015636;28;20527;-69
2021/04/21 08:14:39;;;;;;;8.17;4.10;;;13.80;99.90;;;;;;5033108;28;20432;-68
2021/04/21 08:17:06;;;;;;;5.27;4.10;;;14.00;99.90;;;;;;5033167;28;20515;-68
2021/04/21 08:19:38;;;;;;;7.70;4.43;;;14.10;99.90;;;;;;5032600;28;20394;-67
2021/04/21 08:22:06;;;;;;;8.60;4.73;;;14.10;99.90;;;;;;5033140;28;20511;-67
2021/04/21 08:24:42;;;;;;;8.50;4.03;;;14.20;99.90;;;;;;5032159;28;20930;-67
2021/04/21 08:27:11;;;;;;;6.00;4.50;;;14.00;99.90;;;;;;5032363;28;20414;-68
2021/04/21 08:29:39;;;;;;;6.17;4.60;;;13.90;99.90;;;;;;5032584;28;20901;-68
2021/04/21 08:32:07;;;;;;;5.30;3.70;;;14.00;99.90;;;;;;5032866;28;20408;-68
2021/04/21 08:34:36;;;;;;;4.23;3.10;;;14.10;99.90;;;;;;5031968;28;20383;-68
2021/04/21 08:37:05;;;;;;;3.70;2.73;;;14.10;99.90;;;;;;5032513;28;20924;-68
2021/04/21 08:39:37;;;;;;;5.93;2.80;;;14.20;99.90;;;;;;5032415;28;20395;-67
2021/04/21 08:42:07;;;;;;;6.30;4.20;;;14.30;99.90;;;;;;5032954;28;20872;-68
2021/04/21 08:44:40;;;;;;;4.40;3.17;;;14.50;99.90;;;;;;5032153;28;20412;-69
2021/04/21 08:47:09;;;;;;;5.57;3.40;;;14.60;99.90;;;;;;5032013;28;20425;-68
2021/04/21 08:49:39;;;;;;;13.33;4.80;;;14.70;99.90;;;;;;5031604;28;20429;-68
2021/04/21 08:52:07;;;;;;;7.70;5.20;;;14.70;99.90;;;;;;5049799;28;20919;-67
2021/04/21 08:54:36;;;;;;;5.37;4.07;;;14.80;99.90;;;;;;5051045;28;20768;-67
2021/04/21 08:57:04;;;;;;;4.80;4.30;;;14.80;99.90;;;;;;5051345;28;20971;-69
2021/04/21 08:59:31;;;;;;;9.20;5.13;;;14.80;99.90;;;;;;5050808;28;20390;-68
2021/04/21 09:01:58;;;;;;;6.03;4.47;;;14.90;99.90;;;;;;5052081;28;20410;-67
2021/04/21 09:04:25;;;;;;;7.03;4.77;;;15.10;99.90;;;;;;5043287;28;20512;-68
2021/04/21 09:06:53;;;;;;;5.53;4.67;;;15.10;99.90;;;;;;5032317;28;20402;-69
2021/04/21 09:09:21;;;;;;;7.00;5.20;;;15.20;99.90;;;;;;5034082;28;20842;-67
2021/04/21 09:11:52;;;;;;;8.20;5.40;;;15.30;99.90;;;;;;5039288;28;20410;-69
2021/04/21 09:14:19;;;;;;;7.33;4.70;;;15.40;99.90;;;;;;5055358;28;20398;-68
2021/04/21 09:16:46;;;;;;;10.33;4.93;;;15.20;99.90;;;;;;5036882;28;20449;-67
2021/04/21 09:19:15;;;;;;;6.30;5.03;;;15.20;99.90;;;;;;5037127;28;20807;-67
2021/04/21 09:21:43;;;;;;;6.10;4.80;;;15.50;99.90;;;;;;5055759;28;20869;-68
2021/04/21 09:24:13;;;;;;;9.03;6.77;;;15.60;99.90;;;;;;5049829;28;20439;-66
2021/04/21 09:26:40;;;;;;;8.13;4.00;;;15.50;99.90;;;;;;5051204;28;20446;-68
2021/04/21 09:29:07;;;;;;;8.17;4.90;;;15.60;99.90;;;;;;5050715;28;20472;-69
2021/04/21 09:31:35;;;;;;;6.47;4.90;;;15.70;99.90;;;;;;5050761;28;20474;-67
2021/04/21 09:34:10;;;;;;;6.70;3.87;;;15.70;99.90;;;;;;5050203;28;20404;-66
2021/04/21 09:36:41;;;;;;;6.10;4.80;;;15.70;99.90;;;;;;5050197;28;20510;-68
2021/04/21 09:39:10;;;;;;;6.77;5.20;;;15.60;99.90;;;;;;5049844;28;20987;-67
2021/04/21 09:41:39;;;;;;;10.53;5.70;;;15.70;99.90;;;;;;5050139;28;20791;-68
2021/04/21 09:44:18;;;;;;;7.20;4.80;;;15.90;99.90;;;;;;5050089;28;20461;-68
2021/04/21 09:46:47;;;;;;;8.40;5.83;;;16.00;99.90;;;;;;5050305;28;21395;-68
2021/04/21 09:49:36;;;;;;;6.80;5.33;;;16.10;99.90;;;;;;5047609;28;20615;-68
2021/04/21 09:52:28;;;;;;;7.03;4.80;;;16.20;99.90;;;;;;5046555;28;20917;-68
2021/04/21 09:54:57;;;;;;;6.20;4.70;;;16.20;99.90;;;;;;5040713;28;20409;-68
2021/04/21 09:57:31;;;;;;;8.17;4.77;;;16.10;99.90;;;;;;5029046;28;20426;-67
2021/04/21 10:00:00;;;;;;;6.10;5.07;;;16.00;99.90;;;;;;5030270;28;20430;-67
2021/04/21 10:02:32;;;;;;;6.70;4.63;;;16.20;99.90;;;;;;5030858;28;20425;-68
2021/04/21 10:05:24;;;;;;;5.37;4.80;;;16.10;99.90;;;;;;5043368;28;20393;-68
2021/04/21 10:08:14;;;;;;;9.40;4.13;;;16.00;99.90;;;;;;5048292;28;20418;-68
2021/04/21 10:10:43;;;;;;;5.83;5.13;;;16.00;99.90;;;;;;5034947;28;20404;-67
2021/04/21 10:13:17;;;;;;;7.50;6.20;;;15.90;99.90;;;;;;5034808;28;20463;-69
2021/04/21 10:16:06;;;;;;;5.03;3.93;;;16.10;99.90;;;;;;5030120;28;20424;-68
2021/04/21 10:18:33;;;;;;;6.93;5.13;;;16.20;99.90;;;;;;5012556;28;20434;-68
2021/04/21 10:21:02;;;;;;;6.60;5.60;;;16.20;99.90;;;;;;5041983;28;20432;-69
2021/04/21 10:23:30;;;;;;;6.00;4.30;;;16.40;99.90;;;;;;5035450;28;20421;-67
2021/04/21 10:26:02;;;;;;;8.97;4.90;;;16.40;99.90;;;;;;5049195;28;20403;-68
2021/04/21 10:28:31;;;;;;;7.53;4.43;;;16.40;99.90;;;;;;5038139;28;20438;-67
2021/04/21 10:31:00;;;;;;;5.97;4.33;;;16.40;99.90;;;;;;5041929;28;20931;-67
2021/04/21 10:33:28;;;;;;;10.90;6.13;;;16.60;99.90;;;;;;5055247;28;20382;-68
2021/04/21 10:35:56;;;;;;;5.40;4.30;;;16.80;99.90;;;;;;5035656;28;20401;-67
2021/04/21 10:38:26;;;;;;;4.00;3.20;;;16.70;99.90;;;;;;5053227;28;20413;-68
2021/04/21 10:41:20;;;;;;;3.80;3.43;;;17.00;99.90;;;;;;5053049;28;20436;-68
2021/04/21 10:43:48;;;;;;;4.00;3.60;;;17.10;99.90;;;;;;5034477;28;20685;-69
2021/04/21 10:46:16;;;;;;;6.83;3.83;;;17.30;99.90;;;;;;5037643;28;20413;-67
2021/04/21 10:48:45;;;;;;;8.40;5.40;;;17.30;99.90;;;;;;5053811;28;20419;-68
2021/04/21 10:51:35;;;;;;;4.60;3.93;;;17.20;99.90;;;;;;5054009;28;20939;-68
2021/04/21 10:54:04;;;;;;;8.83;3.87;;;17.30;99.90;;;;;;5054330;28;20524;-68
2021/04/21 10:56:32;;;;;;;7.80;4.67;;;17.30;99.90;;;;;;5054168;28;20401;-68
2021/04/21 10:59:02;;;;;;;8.33;4.17;;;16.80;99.90;;;;;;5054491;28;20474;-68
2021/04/21 11:01:34;;;;;;;4.30;2.30;;;16.40;99.90;;;;;;5054157;28;20548;-69
2021/04/21 11:04:04;;;;;;;5.07;4.03;;;16.20;99.90;;;;;;5036527;28;20435;-68
2021/04/21 11:06:52;;;;;;;6.40;3.40;;;16.00;99.90;;;;;;5054369;28;20438;-67
2021/04/21 11:09:20;;;;;;;4.93;3.30;;;15.70;99.90;;;;;;5046336;28;20515;-68
2021/04/21 11:11:49;;;;;;;5.27;2.80;;;15.80;99.90;;;;;;5050640;28;20453;-68
2021/04/21 11:14:56;;;;;;;3.90;3.37;;;15.70;99.90;;;;;;5050811;28;20631;-68
2021/04/21 11:17:23;;;;;;;3.20;2.90;;;16.00;99.90;;;;;;5053594;28;20577;-67
2021/04/21 11:19:50;;;;;;;4.17;3.33;;;16.40;99.90;;;;;;5052312;28;20406;-68
2021/04/21 11:22:29;;;;;;;4.03;3.33;;;16.90;99.90;;;;;;5053730;28;20451;-68
2021/04/21 11:25:25;;;;;;;5.50;3.50;;;17.10;99.90;;;;;;5053336;28;20423;-69
2021/04/21 11:27:54;;;;;;;4.97;3.27;;;17.40;99.90;;;;;;5053161;28;20534;-68
2021/04/21 11:31:00;;;;;;;4.40;3.97;;;17.70;99.90;;;;;;5049251;28;20836;-68
2021/04/21 11:33:58;;;;;;;4.70;3.70;;;17.50;99.90;;;;;;5041013;28;20456;-67
2021/04/21 11:36:40;;;;;;;3.90;3.47;;;17.70;99.90;;;;;;5050723;28;20394;-67
2021/04/21 11:39:07;;;;;;;3.63;3.23;;;17.90;99.90;;;;;;5053089;28;20450;-68
2021/04/21 11:41:44;;;;;;;7.80;3.60;;;17.80;99.90;;;;;;5034195;28;20871;-67
2021/04/21 11:44:31;;;;;;;6.33;4.23;;;17.80;99.90;;;;;;5053015;28;20402;-67
2021/04/21 11:46:59;;;;;;;3.70;3.27;;;17.80;99.90;;;;;;5052085;28;20520;-67
2021/04/21 11:50:03;;;;;;;4.23;3.60;;;17.70;99.90;;;;;;5035343;28;20428;-68
2021/04/21 11:52:43;;;;;;;3.40;2.93;;;17.90;99.90;;;;;;5052975;28;20408;-68
2021/04/21 11:55:17;;;;;;;4.20;3.40;;;18.30;99.90;;;;;;5052823;28;20406;-68
2021/04/21 11:57:50;;;;;;;5.00;3.70;;;17.90;99.90;;;;;;5052830;28;20453;-67
2021/04/21 12:00:21;;;;;;;5.33;4.27;;;17.70;99.90;;;;;;5053134;28;20455;-69
2021/04/21 12:02:49;;;;;;;5.70;3.73;;;17.50;99.90;;;;;;5054523;28;20477;-69
2021/04/21 12:05:22;;;;;;;4.77;3.30;;;17.10;99.90;;;;;;5054668;28;20402;-68
2021/04/21 12:07:49;;;;;;;4.80;3.53;;;16.60;99.90;;;;;;5055030;28;20972;-69
2021/04/21 12:10:18;;;;;;;13.07;3.53;;;16.70;99.90;;;;;;5037821;28;20492;-68
2021/04/21 12:12:45;;;;;;;4.80;3.70;;;16.90;99.90;;;;;;5055184;28;20397;-68
2021/04/21 12:15:14;;;;;;;4.20;3.60;;;17.30;99.90;;;;;;5053606;28;20489;-69
2021/04/21 12:17:52;;;;;;;4.90;3.00;;;17.70;99.90;;;;;;5053396;28;20414;-68
2021/04/21 12:20:29;;;;;;;6.67;3.90;;;17.90;99.90;;;;;;5053944;28;20819;-68
2021/04/21 12:22:57;;;;;;;6.10;3.93;;;18.00;99.90;;;;;;5068064;22;20385;-69
2021/04/21 12:25:26;;;;;;;2.90;2.53;;;18.30;99.90;;;;;;5036014;28;20585;-69
2021/04/21 12:27:57;;;;;;;4.13;2.90;;;18.70;99.90;;;;;;5054742;28;20433;-68
2021/04/21 12:30:28;;;;;;;4.43;2.87;;;19.10;99.90;;;;;;5016015;28;20387;-67
2021/04/21 12:33:11;;;;;;;5.00;3.80;;;19.20;99.90;;;;;;5013991;28;20763;-66
2021/04/21 12:35:40;;;;;;;13.80;3.70;;;19.20;99.90;;;;;;5012245;28;20427;-67
2021/04/21 12:38:07;;;;;;;5.10;3.53;;;19.20;99.90;;;;;;5012432;28;20472;-70
2021/04/21 12:40:35;;;;;;;3.70;3.00;;;18.90;99.90;;;;;;5012527;28;20436;-67
2021/04/21 12:43:12;;;;;;;4.23;2.90;;;18.50;99.90;;;;;;5012502;28;20429;-66
2021/04/21 12:45:40;;;;;;;6.37;3.37;;;18.30;99.90;;;;;;5012319;28;20392;-67
2021/04/21 12:48:27;;;;;;;3.33;2.90;;;18.20;99.90;;;;;;5011337;28;20446;-67
2021/04/21 12:50:57;;;;;;;5.37;3.60;;;18.20;99.90;;;;;;5011603;28;20450;-68
2021/04/21 12:53:31;;;;;;;7.60;3.33;;;18.30;99.90;;;;;;5012492;28;20512;-68
2021/04/21 12:56:07;;;;;;;3.43;2.73;;;18.60;99.90;;;;;;5027050;28;20925;-66
2021/04/21 12:58:37;;;;;;;2.97;2.57;;;18.80;99.90;;;;;;5031050;28;20436;-63
2021/04/21 13:01:09;;;;;;;4.77;2.67;;;19.10;99.90;;;;;;5031084;28;20526;-68
2021/04/21 13:03:36;;;;;;;4.10;2.77;;;19.10;99.90;;;;;;5031403;28;20505;-69
2021/04/21 13:06:05;;;;;;;4.67;4.27;;;18.70;99.90;;;;;;5031003;28;20502;-68
2021/04/21 13:08:33;;;;;;;4.63;3.70;;;18.60;99.90;;;;;;5031321;28;20781;-67
2021/04/21 13:11:01;;;;;;;5.37;4.07;;;18.80;99.90;;;;;;5030942;28;20436;-69
2021/04/21 13:13:35;;;;;;;3.97;3.33;;;18.40;99.90;;;;;;5030889;28;20473;-68
2021/04/21 13:16:03;;;;;;;6.47;4.07;;;17.80;99.90;;;;;;5030918;28;21208;-69
2021/04/21 13:18:35;;;;;;;4.97;3.63;;;17.40;99.90;;;;;;5012975;28;20466;-67
2021/04/21 13:21:07;;;;;;;4.23;3.83;;;17.10;99.90;;;;;;5030607;28;20434;-70
2021/04/21 13:23:35;;;;;;;4.37;2.90;;;16.90;99.90;;;;;;5030695;28;20862;-69
2021/04/21 13:26:04;;;;;;;4.50;3.90;;;17.00;99.90;;;;;;5025223;28;20873;-66
2021/04/21 13:28:36;;;;;;;6.63;3.67;;;17.30;99.90;;;;;;5010977;28;20480;-67